Time;durP1;ratioP1;P1;durP2;ratioP2;P2;SDS_P1;SDS_P2;PMS_P1;PMS_P2;Temp;Humidity;BMP_temperature;BMP_pressure;BME280_temperature;BME280_humidity;BME280_pressure;Samples;Min_cycle;Max_cycle;Signal;HPM_P1;HPM_P2
2022/04/28 00:01:47;;;;;;;19.17;7.55;;;;;;;;;;4718340;30;20139;-63
2022/04/28 00:04:13;;;;;;;18.13;7.93;;;5.50;99.90;;;;;;4746527;30;20067;-63
2022/04/28 00:06:39;;;;;;;17.13;7.40;;;4.50;99.90;;;;;;4751629;30;20059;-63
2022/04/28 00:09:05;;;;;;;18.75;8.02;;;;;;;;;;4751623;30;20052;-63
2022/04/28 00:11:31;;;;;;;20.73;8.10;;;5.10;99.90;;;;;;4735792;30;20078;-61
2022/04/28 00:13:58;;;;;;;16.60;7.80;;;4.80;99.90;;;;;;4736012;30;20072;-62
2022/04/28 00:16:24;;;;;;;21.35;7.85;;;5.00;99.90;;;;;;4735439;30;20056;-62
2022/04/28 00:18:50;;;;;;;15.63;7.93;;;;;;;;;;4750333;30;20052;-62
2022/04/28 00:21:16;;;;;;;17.38;8.15;;;4.60;99.90;;;;;;4751630;30;20062;-62
2022/04/28 00:23:42;;;;;;;15.82;7.63;;;;;;;;;;4751531;30;20135;-61
2022/04/28 00:26:08;;;;;;;15.30;7.50;;;4.80;99.90;;;;;;4751476;30;20056;-61
2022/04/28 00:28:33;;;;;;;16.88;8.15;;;4.90;99.90;;;;;;4751346;30;20126;-61
2022/04/28 00:30:59;;;;;;;18.60;7.93;;;;;;;;;;4751758;30;20056;-62
2022/04/28 00:33:26;;;;;;;20.15;7.95;;;4.60;99.90;;;;;;4751526;30;20393;-62
2022/04/28 00:35:54;;;;;;;23.60;8.30;;;4.70;99.90;;;;;;4751499;30;20131;-61
2022/04/28 00:38:21;;;;;;;20.40;8.02;;;;;;;;;;4735369;30;20059;-62
2022/04/28 00:40:47;;;;;;;21.58;8.10;;;4.60;99.90;;;;;;4751238;30;20056;-62
2022/04/28 00:43:20;;;;;;;15.52;8.00;;;;;;;;;;4735380;30;20460;-62
2022/04/28 00:45:50;;;;;;;18.90;8.00;;;4.50;99.90;;;;;;4750348;30;20569;-61
2022/04/28 00:51:04;;;;;;;17.90;7.80;;;4.40;99.90;;;;;;4751400;30;20052;-61
2022/04/28 00:53:31;;;;;;;19.92;7.38;;;5.10;99.90;;;;;;4751269;30;20109;-61
2022/04/28 00:56:00;;;;;;;16.27;7.85;;;4.20;99.90;;;;;;4751441;30;20067;-61
2022/04/28 00:58:26;;;;;;;16.77;7.72;;;4.70;99.90;;;;;;4751488;30;20051;-61
2022/04/28 01:00:54;;;;;;;18.42;7.07;;;4.40;99.90;;;;;;4743701;30;20056;-61
2022/04/28 01:03:30;;;;;;;17.50;8.20;;;4.30;99.90;;;;;;4744472;30;20530;-62
2022/04/28 01:05:56;;;;;;;17.83;7.95;;;;;;;;;;4749536;30;20110;-62
2022/04/28 01:08:22;;;;;;;19.33;8.65;;;4.20;99.90;;;;;;4743420;30;20139;-61
2022/04/28 01:10:47;;;;;;;18.90;8.25;;;4.30;99.90;;;;;;4751245;30;20131;-61
2022/04/28 01:13:13;;;;;;;16.55;7.65;;;;;;;;;;4751478;30;20474;-61
2022/04/28 01:15:43;;;;;;;22.38;8.25;;;4.50;99.90;;;;;;4751493;30;20057;-61
2022/04/28 01:18:09;;;;;;;16.58;8.80;;;;;;;;;;4751158;30;20191;-62
2022/04/28 01:20:36;;;;;;;17.00;8.20;;;;;;;;;;4750966;30;20044;-62
2022/04/28 01:23:04;;;;;;;17.80;8.63;;;3.90;99.90;;;;;;4751039;30;20054;-61
2022/04/28 01:25:30;;;;;;;17.02;9.15;;;3.80;99.90;;;;;;4750944;30;20055;-61
2022/04/28 01:27:57;;;;;;;18.92;9.05;;;3.70;99.90;;;;;;4750814;30;20052;-61
2022/04/28 01:30:23;;;;;;;15.35;8.93;;;3.60;99.90;;;;;;4750856;30;20505;-62
2022/04/28 01:32:49;;;;;;;21.40;9.05;;;;;;;;;;4734698;30;20048;-61
2022/04/28 01:35:15;;;;;;;16.02;8.52;;;;;;;;;;4750583;30;20060;-61
2022/04/28 01:37:41;;;;;;;18.20;8.93;;;;;;;;;;4750718;30;20135;-62
2022/04/28 01:40:13;;;;;;;19.48;8.40;;;3.30;99.90;;;;;;4750979;30;20424;-61
2022/04/28 01:42:40;;;;;;;20.13;8.48;;;3.20;99.90;;;;;;4750785;30;20062;-61
2022/04/28 01:45:07;;;;;;;21.17;8.70;;;4.20;99.90;;;;;;4750665;30;20429;-58
2022/04/28 01:47:33;;;;;;;15.88;8.73;;;3.60;99.90;;;;;;4750296;30;20062;-58
2022/04/28 01:49:59;;;;;;;23.58;9.80;;;3.60;99.90;;;;;;4750482;30;20123;-58
2022/04/28 01:55:13;;;;;;;19.23;10.10;;;;;;;;;;4750137;30;20067;-58
2022/04/28 01:57:39;;;;;;;23.00;10.25;;;3.50;99.90;;;;;;4750086;30;20056;-58
2022/04/28 02:00:06;;;;;;;23.77;10.25;;;3.50;99.90;;;;;;4752109;30;20477;-59
2022/04/28 02:02:32;;;;;;;17.60;10.40;;;3.80;99.90;;;;;;4753554;30;20064;-58
2022/04/28 02:04:59;;;;;;;21.90;9.95;;;;;;;;;;4753528;30;20068;-58
2022/04/28 02:07:28;;;;;;;21.35;9.43;;;3.20;99.90;;;;;;4753239;30;20395;-58
2022/04/28 02:09:55;;;;;;;24.75;10.02;;;3.40;99.90;;;;;;4737334;30;20490;-58
2022/04/28 02:12:21;;;;;;;21.15;11.23;;;;;;;;;;4753265;30;20121;-58
2022/04/28 02:14:47;;;;;;;32.15;11.95;;;3.10;99.90;;;;;;4737016;30;20068;-58
2022/04/28 02:17:22;;;;;;;19.60;10.55;;;3.10;99.90;;;;;;4753015;30;20478;-58
2022/04/28 02:19:48;;;;;;;25.08;11.15;;;3.20;99.90;;;;;;4752678;30;20073;-59
2022/04/28 02:22:14;;;;;;;20.15;11.25;;;;;;;;;;4753386;30;20083;-58
2022/04/28 02:24:40;;;;;;;26.98;10.50;;;3.10;99.90;;;;;;4752960;30;20079;-58
2022/04/28 02:27:06;;;;;;;25.90;11.52;;;3.20;99.90;;;;;;4753276;30;20138;-58
2022/04/28 02:29:33;;;;;;;19.50;11.68;;;3.40;99.90;;;;;;4752836;30;20505;-58
2022/04/28 02:31:59;;;;;;;19.67;10.80;;;;;;;;;;4752677;30;20063;-58
2022/04/28 02:34:27;;;;;;;23.17;11.25;;;2.10;99.90;;;;;;4752948;30;20060;-58
2022/04/28 02:36:53;;;;;;;18.13;11.05;;;3.20;99.90;;;;;;4752638;30;20524;-58
2022/04/28 02:39:19;;;;;;;18.23;9.68;;;3.40;99.90;;;;;;4752696;30;20136;-58
2022/04/28 02:41:45;;;;;;;19.58;9.85;;;;;;;;;;4736826;30;20135;-58
2022/04/28 02:44:12;;;;;;;19.55;10.63;;;1.80;99.90;;;;;;4736891;30;20136;-58
2022/04/28 02:46:45;;;;;;;20.25;10.30;;;3.00;99.90;;;;;;4752635;30;20068;-58
2022/04/28 02:49:12;;;;;;;23.40;10.38;;;3.00;99.90;;;;;;4752544;30;20117;-58
2022/04/28 02:51:38;;;;;;;19.63;11.45;;;2.10;99.90;;;;;;4752444;30;20091;-58
2022/04/28 02:54:05;;;;;;;27.33;11.02;;;2.70;99.90;;;;;;4752559;30;20080;-58
2022/04/28 02:56:31;;;;;;;25.42;13.48;;;;;;;;;;4736514;30;20103;-58
2022/04/28 02:58:57;;;;;;;25.23;12.55;;;2.70;99.90;;;;;;4752511;30;20048;-58
2022/04/28 03:01:24;;;;;;;28.98;12.82;;;2.90;99.90;;;;;;4752117;30;20048;-58
2022/04/28 03:03:50;;;;;;;26.30;12.13;;;2.60;99.90;;;;;;4752386;30;20119;-58
2022/04/28 03:11:46;;;;;;;22.20;11.30;;;1.40;99.90;;;;;;4751487;30;20525;-58
2022/04/28 03:14:12;;;;;;;21.48;11.65;;;;;;;;;;4752118;30;20052;-58
2022/04/28 03:16:38;;;;;;;21.33;11.35;;;2.70;99.90;;;;;;4752167;30;20091;-58
2022/04/28 03:19:05;;;;;;;21.48;11.43;;;;;;;;;;4751783;30;20414;-58
2022/04/28 03:21:31;;;;;;;21.38;12.07;;;2.60;99.90;;;;;;4752280;30;20056;-58
2022/04/28 03:23:57;;;;;;;20.42;12.00;;;2.90;99.90;;;;;;4752245;30;20071;-58
2022/04/28 03:26:23;;;;;;;20.15;11.40;;;;;;;;;;4752469;30;20052;-58
2022/04/28 03:28:52;;;;;;;21.33;11.85;;;;;;;;;;4752305;30;20126;-58
2022/04/28 03:31:18;;;;;;;24.23;11.70;;;;;;;;;;4751816;30;20056;-58
2022/04/28 03:33:44;;;;;;;24.67;11.98;;;2.80;99.90;;;;;;4752131;30;20106;-58
2022/04/28 03:38:54;;;;;;;23.83;11.43;;;;;;;;;;4751864;30;20063;-58
2022/04/28 03:41:20;;;;;;;22.60;11.25;;;;;;;;;;4751649;30;20110;-58
2022/04/28 03:43:46;;;;;;;23.95;11.63;;;2.30;99.90;;;;;;4751865;30;20060;-58
2022/04/28 03:46:13;;;;;;;20.63;11.10;;;;;;;;;;4751508;30;20078;-58
2022/04/28 03:48:39;;;;;;;18.83;11.65;;;;;;;;;;4751964;30;20072;-58
2022/04/28 03:51:05;;;;;;;20.75;11.65;;;;;;;;;;4751707;30;20123;-58
2022/04/28 03:53:31;;;;;;;20.63;11.93;;;3.00;99.90;;;;;;4751297;30;20060;-58
2022/04/28 03:55:57;;;;;;;22.30;10.95;;;;;;;;;;4751320;30;20071;-58
2022/04/28 03:58:25;;;;;;;21.45;11.40;;;2.30;99.90;;;;;;4751639;30;20359;-58
2022/04/28 04:00:51;;;;;;;19.90;12.50;;;2.70;99.90;;;;;;4751613;30;20056;-58
2022/04/28 04:03:19;;;;;;;21.92;11.63;;;;;;;;;;4751295;30;20129;-58
2022/04/28 04:05:45;;;;;;;25.65;12.23;;;2.70;99.90;;;;;;4751433;30;20052;-58
2022/04/28 04:08:12;;;;;;;20.63;12.50;;;2.40;99.90;;;;;;4735677;30;20156;-58
2022/04/28 04:10:38;;;;;;;23.50;11.85;;;3.20;99.90;;;;;;4751416;30;20229;-58
2022/04/28 04:13:05;;;;;;;20.42;12.32;;;2.70;99.90;;;;;;4750893;30;20063;-58
2022/04/28 04:15:32;;;;;;;25.80;12.98;;;;;;;;;;4735065;30;20052;-58
2022/04/28 04:17:59;;;;;;;29.00;12.20;;;2.90;99.90;;;;;;4751073;30;20044;-58
2022/04/28 04:20:25;;;;;;;24.27;14.75;;;;;;;;;;4751319;30;20186;-58
2022/04/28 04:22:52;;;;;;;24.15;14.75;;;;;;;;;;4750232;30;20060;-58
2022/04/28 04:25:18;;;;;;;26.52;13.55;;;2.80;99.90;;;;;;4751042;30;20413;-58
2022/04/28 04:27:44;;;;;;;29.75;12.85;;;;;;;;;;4735102;30;20091;-58
2022/04/28 04:32:55;;;;;;;26.83;14.52;;;;;;;;;;4751106;30;20117;-58
2022/04/28 04:35:23;;;;;;;28.42;12.85;;;;;;;;;;4750949;30;20135;-59
2022/04/28 04:37:50;;;;;;;22.10;14.20;;;2.50;99.90;;;;;;4750841;30;20516;-58
2022/04/28 04:40:17;;;;;;;25.65;14.57;;;3.90;99.90;;;;;;4750655;30;20114;-58
2022/04/28 04:42:43;;;;;;;21.17;14.13;;;3.30;99.90;;;;;;4751135;30;20052;-58
2022/04/28 04:45:10;;;;;;;28.17;15.27;;;;;;;;;;4734987;30;20056;-58
2022/04/28 04:47:36;;;;;;;26.38;13.90;;;4.00;99.90;;;;;;4750926;30;20059;-58
2022/04/28 04:50:04;;;;;;;34.03;14.38;;;4.30;99.90;;;;;;4752578;30;20494;-58
2022/04/28 04:52:29;;;;;;;25.95;13.75;;;3.90;99.90;;;;;;4751202;30;20332;-58
2022/04/28 04:54:55;;;;;;;25.13;14.70;;;3.70;99.90;;;;;;4755664;30;20139;-58
2022/04/28 04:57:21;;;;;;;32.20;15.20;;;;;;;;;;4732760;30;20056;-58
2022/04/28 04:59:47;;;;;;;29.60;15.00;;;4.80;99.90;;;;;;4747247;30;20088;-58
2022/04/28 05:02:14;;;;;;;33.47;15.25;;;3.80;99.90;;;;;;4750154;30;20051;-58
2022/04/28 05:04:40;;;;;;;26.23;15.45;;;3.90;99.90;;;;;;4749004;30;20127;-58
2022/04/28 05:07:06;;;;;;;25.75;15.60;;;4.20;99.90;;;;;;4749719;30;20561;-58
2022/04/28 05:09:32;;;;;;;24.05;14.02;;;;;;;;;;4733070;30;20073;-58
2022/04/28 05:11:59;;;;;;;31.33;15.00;;;4.40;99.90;;;;;;4749649;30;20059;-59
2022/04/28 05:14:25;;;;;;;29.60;15.50;;;;;;;;;;4749919;30;20135;-59
2022/04/28 05:16:50;;;;;;;28.80;16.00;;;4.10;99.90;;;;;;4749425;30;20548;-59
2022/04/28 05:19:16;;;;;;;28.42;15.75;;;4.40;99.90;;;;;;4749266;30;20060;-58
2022/04/28 05:21:42;;;;;;;29.60;15.27;;;;;;;;;;4750491;30;20127;-58
2022/04/28 05:24:08;;;;;;;30.92;15.73;;;;;;;;;;4750043;30;20498;-58
2022/04/28 05:26:34;;;;;;;29.83;15.82;;;4.70;99.90;;;;;;4750033;30;20058;-58
2022/04/28 05:28:59;;;;;;;31.30;14.80;;;4.60;99.90;;;;;;4750497;30;20056;-58
2022/04/28 05:31:25;;;;;;;28.75;15.52;;;;;;;;;;4734690;30;20059;-58
2022/04/28 05:33:51;;;;;;;30.83;15.02;;;5.30;99.90;;;;;;4750964;30;20559;-58
2022/04/28 05:36:17;;;;;;;25.88;14.50;;;;;;;;;;4753640;30;20070;-59
2022/04/28 05:38:44;;;;;;;24.02;14.63;;;5.20;99.90;;;;;;4737553;30;20060;-59
2022/04/28 05:41:10;;;;;;;25.17;15.30;;;4.90;99.90;;;;;;4737868;30;20056;-58
2022/04/28 05:46:37;;;;;;;27.60;14.68;;;5.30;99.90;;;;;;4681647;30;20515;-59
2022/04/28 05:49:05;;;;;;;32.90;14.85;;;5.40;99.90;;;;;;4681225;30;20073;-59
2022/04/28 05:51:31;;;;;;;25.55;13.88;;;;;;;;;;4681417;30;20066;-59
2022/04/28 05:53:57;;;;;;;22.25;13.40;;;5.30;99.90;;;;;;4681428;30;20137;-59
2022/04/28 05:56:23;;;;;;;27.98;13.93;;;5.80;99.90;;;;;;4681542;30;20149;-59
2022/04/28 05:58:49;;;;;;;22.90;13.30;;;5.60;99.90;;;;;;4667031;30;20049;-59
2022/04/28 06:01:15;;;;;;;32.42;13.48;;;;;;;;;;4681374;30;20057;-59
2022/04/28 06:03:41;;;;;;;26.95;12.93;;;5.90;99.90;;;;;;4666743;30;20062;-59
2022/04/28 06:06:07;;;;;;;21.25;12.65;;;5.50;99.90;;;;;;4681387;30;20065;-59
2022/04/28 06:08:33;;;;;;;21.73;12.50;;;6.20;99.90;;;;;;4681194;30;20062;-59
2022/04/28 06:11:01;;;;;;;30.98;12.43;;;;;;;;;;4680920;30;20124;-60
2022/04/28 06:13:27;;;;;;;71.13;15.45;;;6.30;99.90;;;;;;4681129;30;20366;-59
2022/04/28 06:15:53;;;;;;;51.42;14.27;;;;;;;;;;4681203;30;20054;-60
2022/04/28 06:18:18;;;;;;;33.20;12.02;;;7.10;99.90;;;;;;4680858;30;20628;-59
2022/04/28 06:20:45;;;;;;;29.88;11.48;;;6.70;99.90;;;;;;4721252;30;20052;-59
2022/04/28 06:23:11;;;;;;;18.42;11.07;;;;;;;;;;4752754;30;20048;-59
2022/04/28 06:25:37;;;;;;;21.52;11.80;;;6.80;99.90;;;;;;4737052;30;20138;-59
2022/04/28 06:28:04;;;;;;;20.08;10.55;;;6.70;99.90;;;;;;4753173;30;20513;-62
2022/04/28 06:30:30;;;;;;;18.33;9.05;;;;;;;;;;4753087;30;20383;-62
2022/04/28 06:32:55;;;;;;;20.58;9.60;;;7.10;99.90;;;;;;4752658;30;20060;-59
2022/04/28 06:35:21;;;;;;;19.00;9.63;;;7.00;99.90;;;;;;4752760;30;20048;-59
2022/04/28 06:37:47;;;;;;;17.33;10.07;;;7.10;99.90;;;;;;4752962;30;20060;-60
2022/04/28 06:40:13;;;;;;;18.38;10.30;;;;;;;;;;4752678;30;20060;-60
2022/04/28 06:42:43;;;;;;;19.77;10.45;;;7.30;99.90;;;;;;4736872;30;20529;-59
2022/04/28 06:45:12;;;;;;;17.90;9.60;;;7.60;99.90;;;;;;4751957;30;20178;-59
2022/04/28 06:47:39;;;;;;;20.42;8.90;;;;;;;;;;4752629;30;20052;-61
2022/04/28 06:50:05;;;;;;;16.73;9.20;;;;;;;;;;4752492;30;20509;-62
2022/04/28 06:52:31;;;;;;;16.80;8.18;;;;;;;;;;4750601;30;20417;-62
2022/04/28 06:54:58;;;;;;;17.08;7.72;;;7.80;99.90;;;;;;4752490;30;20067;-62
2022/04/28 06:57:24;;;;;;;14.43;7.43;;;7.60;99.90;;;;;;4752693;30;20056;-62
2022/04/28 06:59:50;;;;;;;12.73;6.78;;;;;;;;;;4752784;30;20084;-60
2022/04/28 07:02:15;;;;;;;15.85;7.03;;;8.10;99.90;;;;;;4736391;30;20056;-61
2022/04/28 07:04:45;;;;;;;17.73;6.90;;;;;;;;;;4752308;30;20066;-61
2022/04/28 07:07:11;;;;;;;17.90;6.50;;;;;;;;;;4752713;30;20215;-61
2022/04/28 07:09:36;;;;;;;14.27;6.70;;;8.30;99.90;;;;;;4752232;30;20059;-61
2022/04/28 07:12:02;;;;;;;14.95;6.30;;;8.90;99.90;;;;;;4752387;30;20493;-62
2022/04/28 07:14:28;;;;;;;19.00;6.80;;;;;;;;;;4736345;30;20060;-62
2022/04/28 07:16:54;;;;;;;15.65;6.40;;;8.40;99.90;;;;;;4752448;30;20060;-62
2022/04/28 07:19:20;;;;;;;13.45;5.10;;;;;;;;;;4752251;30;20117;-62
2022/04/28 07:21:46;;;;;;;18.67;6.15;;;;;;;;;;4752187;30;20052;-62
2022/04/28 07:24:12;;;;;;;16.20;5.40;;;9.20;99.90;;;;;;4752255;30;20052;-62
2022/04/28 07:26:38;;;;;;;18.35;5.47;;;8.60;99.90;;;;;;4752477;30;20127;-62
2022/04/28 07:29:05;;;;;;;16.33;5.85;;;8.90;99.90;;;;;;4751230;30;20062;-62
2022/04/28 07:31:31;;;;;;;21.20;5.60;;;10.30;99.90;;;;;;4751427;30;20062;-62
2022/04/28 07:33:58;;;;;;;14.80;5.38;;;9.40;99.90;;;;;;4752051;30;20060;-62
2022/04/28 07:36:23;;;;;;;16.25;5.90;;;;;;;;;;4751904;30;20133;-62
2022/04/28 07:38:51;;;;;;;19.90;5.60;;;9.60;99.90;;;;;;4753997;30;20505;-62
2022/04/28 07:41:17;;;;;;;18.77;5.57;;;;;;;;;;4751990;30;20056;-62
2022/04/28 07:43:43;;;;;;;15.75;5.63;;;9.90;99.90;;;;;;4751691;30;20151;-62
2022/04/28 07:46:09;;;;;;;15.07;5.60;;;;;;;;;;4751676;30;20078;-62
2022/04/28 07:48:35;;;;;;;13.48;5.38;;;10.30;99.90;;;;;;4751921;30;20114;-62
2022/04/28 07:51:00;;;;;;;15.35;5.55;;;;;;;;;;4751621;30;20056;-62
2022/04/28 07:53:27;;;;;;;13.75;5.18;;;;;;;;;;4750213;30;20056;-62
2022/04/28 07:56:12;;;;;;;12.55;5.15;;;;;;;;;;4751566;30;20064;-62
2022/04/28 07:58:38;;;;;;;12.30;5.00;;;11.00;99.90;;;;;;4751392;30;20087;-62
2022/04/28 08:01:05;;;;;;;14.25;5.03;;;11.10;99.90;;;;;;4751348;30;20360;-62
2022/04/28 08:03:31;;;;;;;14.85;5.30;;;11.60;99.90;;;;;;4735337;30;20421;-62
2022/04/28 08:05:57;;;;;;;560.83;40.15;;;11.90;99.90;;;;;;4751126;30;20060;-61
2022/04/28 08:08:23;;;;;;;16.52;5.20;;;;;;;;;;4751208;30;20505;-62
2022/04/28 08:10:50;;;;;;;14.10;5.00;;;12.40;99.90;;;;;;4751229;30;20060;-62
2022/04/28 08:13:16;;;;;;;12.45;5.00;;;12.50;99.90;;;;;;4751039;30;20056;-62
2022/04/28 08:15:42;;;;;;;13.40;4.50;;;;;;;;;;4751313;30;20052;-62
2022/04/28 08:18:08;;;;;;;14.68;5.03;;;;;;;;;;4751116;30;20082;-62
2022/04/28 08:20:34;;;;;;;32.72;6.45;;;11.20;99.90;;;;;;4751337;30;20044;-62
2022/04/28 08:22:59;;;;;;;17.70;4.63;;;11.80;99.90;;;;;;4751039;30;20212;-61
2022/04/28 08:25:25;;;;;;;16.95;5.82;;;;;;;;;;4750944;30;20079;-62
2022/04/28 08:27:51;;;;;;;15.35;5.40;;;;;;;;;;4750941;30;20575;-62
2022/04/28 08:30:17;;;;;;;15.73;5.03;;;;;;;;;;4735445;30;20370;-62
2022/04/28 08:32:43;;;;;;;15.00;5.53;;;11.70;99.90;;;;;;4750943;30;20056;-62
2022/04/28 08:35:09;;;;;;;12.70;5.45;;;;;;;;;;4750849;30;20107;-62
2022/04/28 08:37:36;;;;;;;12.50;5.53;;;;;;;;;;4720354;30;20143;-62
2022/04/28 08:40:03;;;;;;;12.48;5.30;;;11.50;99.90;;;;;;4750698;30;20052;-62
2022/04/28 08:42:31;;;;;;;13.68;5.53;;;11.50;99.90;;;;;;4735107;30;20052;-62
2022/04/28 08:45:00;;;;;;;12.45;5.40;;;11.60;99.90;;;;;;4734656;30;20074;-62
2022/04/28 08:47:26;;;;;;;12.10;5.78;;;11.70;99.90;;;;;;4734903;30;20108;-62
2022/04/28 08:49:52;;;;;;;17.98;5.88;;;11.50;99.90;;;;;;4720270;30;20067;-62
2022/04/28 08:52:18;;;;;;;10.57;5.03;;;11.50;99.90;;;;;;4749500;30;20074;-62
2022/04/28 08:54:45;;;;;;;16.25;5.38;;;11.30;99.90;;;;;;4749236;30;20063;-62
2022/04/28 08:57:13;;;;;;;12.13;5.00;;;;;;;;;;4744321;30;20528;-61
2022/04/28 08:59:39;;;;;;;14.10;5.10;;;11.50;99.90;;;;;;4732004;30;20068;-62
2022/04/28 09:02:05;;;;;;;11.48;5.18;;;11.30;99.90;;;;;;4717390;30;20418;-62
2022/04/28 09:04:31;;;;;;;13.25;5.25;;;;;;;;;;4737955;30;20052;-62
2022/04/28 09:06:59;;;;;;;15.15;5.07;;;11.40;99.90;;;;;;4730341;30;20162;-62
2022/04/28 09:09:28;;;;;;;12.85;5.18;;;11.20;99.90;;;;;;4732629;30;20083;-62
2022/04/28 09:11:59;;;;;;;21.42;5.78;;;11.50;99.90;;;;;;4735619;30;20064;-62
2022/04/28 09:14:27;;;;;;;17.80;5.32;;;11.60;99.90;;;;;;4734156;30;20064;-62
2022/04/28 09:17:01;;;;;;;14.18;4.70;;;11.70;99.90;;;;;;4733976;30;20056;-62
2022/04/28 09:19:33;;;;;;;19.73;4.78;;;12.70;99.90;;;;;;4734619;30;20465;-62
2022/04/28 09:22:08;;;;;;;9.80;4.30;;;12.00;99.90;;;;;;4735148;30;20465;-62
2022/04/28 09:24:35;;;;;;;11.85;4.43;;;12.10;99.90;;;;;;4734095;30;20696;-62
2022/04/28 09:27:02;;;;;;;11.38;4.57;;;12.30;99.90;;;;;;4733666;30;20057;-62
2022/04/28 09:29:30;;;;;;;158.95;12.63;;;12.60;99.90;;;;;;4734179;30;20079;-61
2022/04/28 09:31:56;;;;;;;12.48;4.65;;;12.90;99.90;;;;;;4733722;30;20123;-62
2022/04/28 09:34:23;;;;;;;13.57;3.40;;;12.60;99.90;;;;;;4733666;30;20056;-62
2022/04/28 09:36:50;;;;;;;9.35;3.78;;;12.50;99.90;;;;;;4733730;30;20060;-62
2022/04/28 09:44:53;;;;;;;13.77;3.80;;;12.50;99.90;;;;;;4733851;30;20075;-62
2022/04/28 09:47:20;;;;;;;12.13;3.50;;;12.60;99.90;;;;;;4734074;30;20120;-62
2022/04/28 09:49:52;;;;;;;13.25;3.90;;;12.20;99.90;;;;;;4733874;30;20068;-62
2022/04/28 09:52:23;;;;;;;7.43;3.58;;;;;;;;;;4718297;30;20065;-62
2022/04/28 09:54:51;;;;;;;19.02;3.85;;;12.00;99.90;;;;;;4733713;30;20095;-62
2022/04/28 09:57:18;;;;;;;10.80;3.70;;;12.50;99.90;;;;;;4734446;30;20147;-62
2022/04/28 09:59:45;;;;;;;18.38;3.75;;;12.80;99.90;;;;;;4717548;30;20048;-62
2022/04/28 10:02:15;;;;;;;10.35;3.63;;;12.60;99.90;;;;;;4733364;30;20103;-62
2022/04/28 10:04:45;;;;;;;10.07;3.47;;;13.10;99.90;;;;;;4717688;30;20158;-61
2022/04/28 10:07:14;;;;;;;12.13;3.75;;;;;;;;;;4732990;30;20061;-61
2022/04/28 10:09:41;;;;;;;12.98;4.13;;;12.50;99.90;;;;;;4717375;30;20092;-60
2022/04/28 10:12:09;;;;;;;37.40;4.47;;;12.30;99.90;;;;;;4717583;30;20069;-60
2022/04/28 10:14:39;;;;;;;11.35;3.70;;;12.90;99.90;;;;;;4733438;30;20082;-61
2022/04/28 10:17:11;;;;;;;12.63;4.40;;;13.00;99.90;;;;;;4734160;30;20056;-60
2022/04/28 10:19:43;;;;;;;16.50;3.63;;;13.20;98.60;;;;;;4705885;30;20139;-62
2022/04/28 10:22:13;;;;;;;14.00;4.05;;;13.30;99.90;;;;;;4734706;30;20402;-61
2022/04/28 10:33:15;;;;;;;10.48;4.00;;;13.70;96.30;;;;;;4752159;30;20087;-61
2022/04/28 10:35:45;;;;;;;8.48;3.45;;;13.70;96.40;;;;;;4735878;30;20059;-62
2022/04/28 10:38:34;;;;;;;12.63;4.05;;;13.60;99.90;;;;;;4751917;30;20044;-61
2022/04/28 10:41:08;;;;;;;10.10;3.50;;;14.20;99.90;;;;;;4751703;30;20403;-61
2022/04/28 10:43:34;;;;;;;9.90;3.47;;;;;;;;;;4735392;30;20055;-61
2022/04/28 10:46:08;;;;;;;10.82;3.40;;;14.00;97.90;;;;;;4752133;30;20052;-60
2022/04/28 10:48:42;;;;;;;10.57;3.20;;;13.90;95.50;;;;;;4736439;30;20125;-61
2022/04/28 10:51:13;;;;;;;10.32;3.40;;;13.70;99.50;;;;;;4751758;30;20048;-60
2022/04/28 10:54:09;;;;;;;15.30;4.18;;;14.00;99.90;;;;;;4751480;30;20052;-60
2022/04/28 10:56:44;;;;;;;16.38;4.20;;;13.90;99.90;;;;;;4735446;30;20056;-61
2022/04/28 10:59:34;;;;;;;9.90;3.40;;;14.00;99.90;;;;;;4749107;30;20131;-61
2022/04/28 11:02:19;;;;;;;9.60;3.70;;;13.80;95.80;;;;;;4734006;30;20056;-60
2022/04/28 11:05:00;;;;;;;11.70;3.80;;;13.90;96.50;;;;;;4749812;30;20048;-61
2022/04/28 11:07:31;;;;;;;9.07;3.70;;;14.00;99.90;;;;;;4750278;30;20543;-60
2022/04/28 11:09:59;;;;;;;13.00;3.70;;;14.10;98.30;;;;;;4750522;30;20060;-61
2022/04/28 11:12:33;;;;;;;10.32;3.70;;;14.10;95.30;;;;;;4734328;30;20056;-60
2022/04/28 11:15:03;;;;;;;10.27;3.58;;;14.00;99.90;;;;;;4749614;30;20056;-61
2022/04/28 11:17:31;;;;;;;20.35;4.03;;;14.10;95.20;;;;;;4749890;30;20064;-62
2022/04/28 11:20:04;;;;;;;16.15;4.30;;;14.30;99.90;;;;;;4750061;30;20650;-62
2022/04/28 11:22:30;;;;;;;13.70;3.90;;;14.10;98.10;;;;;;4749447;30;20280;-62
2022/04/28 11:24:59;;;;;;;27.52;4.60;;;;;;;;;;4749391;30;20048;-62
2022/04/28 11:27:27;;;;;;;9.75;3.60;;;14.30;95.80;;;;;;4749662;30;20079;-62
2022/04/28 11:29:58;;;;;;;11.77;3.55;;;14.30;95.60;;;;;;4749289;30;20118;-62
2022/04/28 11:32:25;;;;;;;12.85;3.83;;;14.40;99.90;;;;;;4732521;30;20056;-61
2022/04/28 11:34:55;;;;;;;14.02;4.18;;;14.30;97.70;;;;;;4735332;30;20052;-62
2022/04/28 11:37:24;;;;;;;12.88;3.88;;;14.40;93.90;;;;;;4751551;30;20056;-62
2022/04/28 11:39:55;;;;;;;13.43;3.72;;;14.40;99.90;;;;;;4735969;30;20074;-62
2022/04/28 11:42:24;;;;;;;15.60;3.83;;;;;;;;;;4750896;30;20457;-62
2022/04/28 11:44:52;;;;;;;14.98;4.15;;;14.40;93.30;;;;;;4735433;30;20386;-62
2022/04/28 11:47:18;;;;;;;12.63;4.40;;;14.10;94.50;;;;;;4751546;30;20092;-62
2022/04/28 11:49:45;;;;;;;12.85;4.95;;;;;;;;;;4735614;30;20056;-62
2022/04/28 11:52:27;;;;;;;18.13;4.72;;;14.90;99.90;;;;;;4751648;30;20067;-62
2022/04/28 11:55:05;;;;;;;13.57;4.53;;;14.40;96.10;;;;;;4735508;30;20064;-62
2022/04/28 11:57:31;;;;;;;16.30;4.15;;;14.70;99.70;;;;;;4734996;30;20060;-62
2022/04/28 11:59:58;;;;;;;24.77;5.40;;;14.70;91.90;;;;;;4751064;30;20099;-62
2022/04/28 12:02:35;;;;;;;21.25;5.05;;;14.60;92.20;;;;;;4751159;30;20058;-61
2022/04/28 12:05:05;;;;;;;9.20;4.40;;;14.70;99.20;;;;;;4735218;30;20087;-62
2022/04/28 12:07:34;;;;;;;9.52;4.90;;;14.50;96.30;;;;;;4751258;30;20048;-62
2022/04/28 12:15:31;;;;;;;10.18;4.50;;;14.40;99.90;;;;;;4751100;30;20063;-62
2022/04/28 12:21:06;;;;;;;15.00;4.80;;;15.00;98.40;;;;;;4737660;30;20056;-62
2022/04/28 12:23:38;;;;;;;;;;;14.80;90.90;;;;;;4751254;30;20096;-62
2022/04/28 12:26:08;;;;;;;13.13;4.45;;;14.70;90.80;;;;;;4750928;30;19929;-62
2022/04/28 12:28:38;;;;;;;11.70;4.03;;;14.80;98.90;;;;;;4734941;30;20056;-62
2022/04/28 12:31:04;;;;;;;20.95;4.90;;;15.00;90.90;;;;;;4751110;30;20059;-61
2022/04/28 12:33:35;;;;;;;17.20;4.80;;;14.90;97.10;;;;;;4750687;30;20072;-62
2022/04/28 12:36:02;;;;;;;14.98;4.72;;;14.80;97.90;;;;;;4750760;30;20060;-62
2022/04/28 12:38:30;;;;;;;25.83;5.15;;;14.70;94.10;;;;;;4750807;30;20056;-62
2022/04/28 12:40:56;;;;;;;16.15;4.55;;;14.90;96.70;;;;;;4734871;30;20056;-61
2022/04/28 12:43:40;;;;;;;12.15;4.93;;;14.80;88.80;;;;;;4734581;30;20163;-61
2022/04/28 12:46:09;;;;;;;14.48;4.90;;;14.80;97.60;;;;;;4734800;30;20056;-61
2022/04/28 12:48:37;;;;;;;14.02;4.70;;;15.40;97.70;;;;;;4734878;30;20539;-61
2022/04/28 12:51:20;;;;;;;14.48;4.82;;;14.70;89.70;;;;;;4750702;30;20052;-61
2022/04/28 12:53:48;;;;;;;11.48;4.68;;;15.10;96.70;;;;;;4720351;30;20487;-61
2022/04/28 12:56:27;;;;;;;13.75;4.45;;;15.20;91.00;;;;;;4750613;30;20071;-62
2022/04/28 12:58:56;;;;;;;15.07;5.20;;;15.30;96.70;;;;;;4734592;30;20048;-61
2022/04/28 13:01:21;;;;;;;12.75;5.38;;;14.90;96.80;;;;;;4749252;30;20117;-61
2022/04/28 13:04:03;;;;;;;16.92;5.18;;;14.80;90.40;;;;;;4750319;30;20659;-62
2022/04/28 13:06:32;;;;;;;17.10;5.22;;;14.80;98.00;;;;;;4750691;30;20052;-61
2022/04/28 13:08:59;;;;;;;15.65;5.00;;;14.70;91.10;;;;;;4734976;30;20513;-62
2022/04/28 13:11:28;;;;;;;15.52;4.63;;;15.00;91.20;;;;;;4750500;30;20117;-62
2022/04/28 13:13:55;;;;;;;12.13;5.00;;;15.00;89.80;;;;;;4750546;30;20048;-61
2022/04/28 13:16:21;;;;;;;13.85;5.20;;;15.20;96.70;;;;;;4734773;30;20117;-61
2022/04/28 13:18:47;;;;;;;12.70;4.75;;;15.30;96.70;;;;;;4734736;30;20518;-62
2022/04/28 13:21:14;;;;;;;13.68;4.88;;;17.30;91.40;;;;;;4734375;30;20056;-62
2022/04/28 13:23:40;;;;;;;17.85;4.97;;;15.50;96.90;;;;;;4750330;30;20494;-61
2022/04/28 13:26:08;;;;;;;13.73;4.88;;;15.80;95.60;;;;;;4750302;30;20056;-61
2022/04/28 13:28:34;;;;;;;23.90;5.53;;;14.80;94.60;;;;;;4750393;30;20051;-61
2022/04/28 13:31:00;;;;;;;13.48;4.80;;;15.20;95.70;;;;;;4750353;30;20044;-61
2022/04/28 13:33:25;;;;;;;14.50;5.15;;;15.10;96.40;;;;;;4734429;30;20564;-61
2022/04/28 13:35:54;;;;;;;17.70;4.82;;;15.10;96.40;;;;;;4749775;30;20586;-61
2022/04/28 13:38:21;;;;;;;17.35;5.10;;;15.50;88.60;;;;;;4750659;30;20052;-61
2022/04/28 13:40:47;;;;;;;12.70;4.60;;;;;;;;;;4734564;30;20532;-62
2022/04/28 13:43:13;;;;;;;13.80;4.65;;;15.70;95.10;;;;;;4750234;30;20056;-62
2022/04/28 13:45:38;;;;;;;16.02;4.20;;;16.10;94.30;;;;;;4749076;30;20476;-62
2022/04/28 13:48:05;;;;;;;19.40;5.07;;;;;;;;;;4734538;30;20536;-61
2022/04/28 13:50:31;;;;;;;19.15;4.93;;;16.10;93.70;;;;;;4750283;30;20052;-62